sensor_id;sensor_type;location;lat;lon;timestamp;P1;durP1;ratioP1;P2;durP2;ratioP2
25045;SDS011;13044;49.304;12.840;2024-02-16T00:01:53;20.98;;;7.60;;
25045;SDS011;13044;49.304;12.840;2024-02-16T00:04:20;30.27;;;6.15;;
25045;SDS011;13044;49.304;12.840;2024-02-16T00:06:47;30.20;;;5.57;;
25045;SDS011;13044;49.304;12.840;2024-02-16T00:09:15;14.68;;;5.43;;
25045;SDS011;13044;49.304;12.840;2024-02-16T00:11:42;23.67;;;6.25;;
25045;SDS011;13044;49.304;12.840;2024-02-16T00:14:09;14.15;;;5.80;;
25045;SDS011;13044;49.304;12.840;2024-02-16T00:16:36;19.08;;;5.85;;
25045;SDS011;13044;49.304;12.840;2024-02-16T00:19:03;15.35;;;6.32;;
25045;SDS011;13044;49.304;12.840;2024-02-16T00:21:30;11.23;;;6.50;;
25045;SDS011;13044;49.304;12.840;2024-02-16T00:23:57;20.50;;;7.13;;
25045;SDS011;13044;49.304;12.840;2024-02-16T00:26:24;11.35;;;6.90;;
25045;SDS011;13044;49.304;12.840;2024-02-16T00:28:51;12.95;;;7.22;;
25045;SDS011;13044;49.304;12.840;2024-02-16T00:31:17;23.77;;;6.60;;
25045;SDS011;13044;49.304;12.840;2024-02-16T00:33:45;26.98;;;4.88;;
25045;SDS011;13044;49.304;12.840;2024-02-16T00:36:13;65.70;;;5.75;;
25045;SDS011;13044;49.304;12.840;2024-02-16T00:38:40;27.15;;;5.15;;
25045;SDS011;13044;49.304;12.840;2024-02-16T00:41:07;49.67;;;5.10;;
25045;SDS011;13044;49.304;12.840;2024-02-16T00:43:34;27.77;;;5.22;;
25045;SDS011;13044;49.304;12.840;2024-02-16T00:46:00;56.08;;;5.13;;
25045;SDS011;13044;49.304;12.840;2024-02-16T00:48:27;34.30;;;4.63;;
25045;SDS011;13044;49.304;12.840;2024-02-16T00:50:54;11.98;;;4.30;;
25045;SDS011;13044;49.304;12.840;2024-02-16T00:53:21;15.25;;;4.07;;
25045;SDS011;13044;49.304;12.840;2024-02-16T00:55:48;17.08;;;4.88;;
25045;SDS011;13044;49.304;12.840;2024-02-16T00:58:15;38.08;;;4.47;;
25045;SDS011;13044;49.304;12.840;2024-02-16T01:00:42;8.25;;;4.60;;
25045;SDS011;13044;49.304;12.840;2024-02-16T01:03:10;10.00;;;4.43;;
25045;SDS011;13044;49.304;12.840;2024-02-16T01:05:39;26.27;;;4.35;;
25045;SDS011;13044;49.304;12.840;2024-02-16T01:08:07;30.98;;;5.00;;
25045;SDS011;13044;49.304;12.840;2024-02-16T01:10:33;22.70;;;5.10;;
25045;SDS011;13044;49.304;12.840;2024-02-16T01:13:00;19.75;;;4.90;;
25045;SDS011;13044;49.304;12.840;2024-02-16T01:15:29;7.60;;;4.40;;
25045;SDS011;13044;49.304;12.840;2024-02-16T01:17:56;10.88;;;4.55;;
25045;SDS011;13044;49.304;12.840;2024-02-16T01:20:26;6.90;;;4.10;;
25045;SDS011;13044;49.304;12.840;2024-02-16T01:22:57;13.70;;;4.40;;
25045;SDS011;13044;49.304;12.840;2024-02-16T01:25:24;4.30;;;3.83;;
25045;SDS011;13044;49.304;12.840;2024-02-16T01:27:51;5.22;;;4.00;;
25045;SDS011;13044;49.304;12.840;2024-02-16T01:30:18;7.00;;;3.90;;
25045;SDS011;13044;49.304;12.840;2024-02-16T01:32:46;5.65;;;3.70;;
25045;SDS011;13044;49.304;12.840;2024-02-16T01:35:13;3.70;;;3.30;;
25045;SDS011;13044;49.304;12.840;2024-02-16T01:37:41;3.83;;;3.10;;
25045;SDS011;13044;49.304;12.840;2024-02-16T01:40:09;4.28;;;3.08;;
25045;SDS011;13044;49.304;12.840;2024-02-16T01:42:44;11.27;;;3.78;;
25045;SDS011;13044;49.304;12.840;2024-02-16T01:45:11;11.40;;;4.00;;
25045;SDS011;13044;49.304;12.840;2024-02-16T01:47:41;10.38;;;3.45;;
25045;SDS011;13044;49.304;12.840;2024-02-16T01:50:10;37.15;;;4.47;;
25045;SDS011;13044;49.304;12.840;2024-02-16T01:52:37;18.50;;;4.20;;
25045;SDS011;13044;49.304;12.840;2024-02-16T01:55:04;18.08;;;3.72;;
25045;SDS011;13044;49.304;12.840;2024-02-16T01:57:45;14.15;;;4.10;;
25045;SDS011;13044;49.304;12.840;2024-02-16T02:00:14;18.98;;;3.70;;
25045;SDS011;13044;49.304;12.840;2024-02-16T02:02:44;9.48;;;4.18;;
25045;SDS011;13044;49.304;12.840;2024-02-16T02:05:12;6.25;;;3.97;;
25045;SDS011;13044;49.304;12.840;2024-02-16T02:07:41;8.52;;;3.83;;
25045;SDS011;13044;49.304;12.840;2024-02-16T02:10:09;7.97;;;3.63;;
25045;SDS011;13044;49.304;12.840;2024-02-16T02:12:40;13.23;;;3.38;;
25045;SDS011;13044;49.304;12.840;2024-02-16T02:15:08;4.53;;;3.53;;
25045;SDS011;13044;49.304;12.840;2024-02-16T02:17:35;4.60;;;3.85;;
25045;SDS011;13044;49.304;12.840;2024-02-16T02:20:03;6.50;;;3.78;;
25045;SDS011;13044;49.304;12.840;2024-02-16T02:22:33;8.68;;;3.95;;
25045;SDS011;13044;49.304;12.840;2024-02-16T02:25:00;5.60;;;3.55;;
25045;SDS011;13044;49.304;12.840;2024-02-16T02:27:27;5.28;;;3.65;;
25045;SDS011;13044;49.304;12.840;2024-02-16T02:29:54;4.55;;;3.55;;
25045;SDS011;13044;49.304;12.840;2024-02-16T02:32:21;4.78;;;3.53;;
25045;SDS011;13044;49.304;12.840;2024-02-16T02:34:47;9.10;;;4.70;;
25045;SDS011;13044;49.304;12.840;2024-02-16T02:37:15;5.43;;;4.28;;
25045;SDS011;13044;49.304;12.840;2024-02-16T02:39:42;4.50;;;3.72;;
25045;SDS011;13044;49.304;12.840;2024-02-16T02:42:10;12.02;;;4.18;;
25045;SDS011;13044;49.304;12.840;2024-02-16T02:44:37;6.65;;;4.00;;
25045;SDS011;13044;49.304;12.840;2024-02-16T02:47:04;10.48;;;3.97;;
25045;SDS011;13044;49.304;12.840;2024-02-16T02:49:31;4.47;;;3.67;;
25045;SDS011;13044;49.304;12.840;2024-02-16T02:52:01;5.57;;;3.88;;
25045;SDS011;13044;49.304;12.840;2024-02-16T02:54:28;4.45;;;3.63;;
25045;SDS011;13044;49.304;12.840;2024-02-16T02:56:55;4.22;;;3.47;;
25045;SDS011;13044;49.304;12.840;2024-02-16T02:59:22;3.90;;;3.15;;
25045;SDS011;13044;49.304;12.840;2024-02-16T03:01:49;3.50;;;3.20;;
25045;SDS011;13044;49.304;12.840;2024-02-16T03:04:16;5.30;;;3.40;;
25045;SDS011;13044;49.304;12.840;2024-02-16T03:06:43;4.38;;;3.65;;
25045;SDS011;13044;49.304;12.840;2024-02-16T03:09:11;3.95;;;3.55;;
25045;SDS011;13044;49.304;12.840;2024-02-16T03:11:39;4.32;;;3.47;;
25045;SDS011;13044;49.304;12.840;2024-02-16T03:14:06;4.35;;;3.50;;
25045;SDS011;13044;49.304;12.840;2024-02-16T03:16:33;3.67;;;3.00;;
25045;SDS011;13044;49.304;12.840;2024-02-16T03:19:00;9.85;;;3.80;;
25045;SDS011;13044;49.304;12.840;2024-02-16T03:21:27;3.80;;;3.20;;
25045;SDS011;13044;49.304;12.840;2024-02-16T03:23:54;4.20;;;3.20;;
25045;SDS011;13044;49.304;12.840;2024-02-16T03:26:21;10.50;;;3.45;;
25045;SDS011;13044;49.304;12.840;2024-02-16T03:28:48;4.50;;;3.33;;
25045;SDS011;13044;49.304;12.840;2024-02-16T03:31:22;3.72;;;3.13;;
25045;SDS011;13044;49.304;12.840;2024-02-16T03:33:51;4.97;;;3.55;;
25045;SDS011;13044;49.304;12.840;2024-02-16T03:36:19;4.85;;;3.10;;
25045;SDS011;13044;49.304;12.840;2024-02-16T03:38:47;6.25;;;3.55;;
25045;SDS011;13044;49.304;12.840;2024-02-16T03:41:19;5.50;;;3.60;;
25045;SDS011;13044;49.304;12.840;2024-02-16T03:43:49;4.35;;;3.60;;
25045;SDS011;13044;49.304;12.840;2024-02-16T03:46:17;4.70;;;3.60;;
25045;SDS011;13044;49.304;12.840;2024-02-16T03:48:44;5.22;;;3.10;;
25045;SDS011;13044;49.304;12.840;2024-02-16T03:51:12;3.83;;;3.38;;
25045;SDS011;13044;49.304;12.840;2024-02-16T03:53:39;4.40;;;3.38;;
25045;SDS011;13044;49.304;12.840;2024-02-16T03:56:06;4.63;;;2.88;;
25045;SDS011;13044;49.304;12.840;2024-02-16T03:58:35;5.28;;;3.30;;
25045;SDS011;13044;49.304;12.840;2024-02-16T04:01:03;5.80;;;3.28;;
25045;SDS011;13044;49.304;12.840;2024-02-16T04:03:33;5.50;;;2.90;;
25045;SDS011;13044;49.304;12.840;2024-02-16T04:06:00;4.20;;;3.08;;
25045;SDS011;13044;49.304;12.840;2024-02-16T04:08:27;4.15;;;3.20;;
25045;SDS011;13044;49.304;12.840;2024-02-16T04:10:54;4.53;;;3.28;;
25045;SDS011;13044;49.304;12.840;2024-02-16T04:13:21;6.80;;;3.80;;
25045;SDS011;13044;49.304;12.840;2024-02-16T04:15:48;5.45;;;3.70;;
25045;SDS011;13044;49.304;12.840;2024-02-16T04:18:20;7.75;;;4.00;;
25045;SDS011;13044;49.304;12.840;2024-02-16T04:20:47;5.47;;;3.95;;
25045;SDS011;13044;49.304;12.840;2024-02-16T04:23:14;6.47;;;3.90;;
25045;SDS011;13044;49.304;12.840;2024-02-16T04:25:41;7.53;;;4.90;;
25045;SDS011;13044;49.304;12.840;2024-02-16T04:28:08;6.28;;;4.80;;
25045;SDS011;13044;49.304;12.840;2024-02-16T04:30:35;5.30;;;4.60;;
25045;SDS011;13044;49.304;12.840;2024-02-16T04:33:02;10.45;;;7.00;;
25045;SDS011;13044;49.304;12.840;2024-02-16T04:35:30;7.13;;;5.38;;
25045;SDS011;13044;49.304;12.840;2024-02-16T04:37:58;9.75;;;4.60;;
25045;SDS011;13044;49.304;12.840;2024-02-16T04:40:25;6.80;;;4.35;;
25045;SDS011;13044;49.304;12.840;2024-02-16T04:42:52;7.22;;;4.30;;
25045;SDS011;13044;49.304;12.840;2024-02-16T04:45:19;5.13;;;4.00;;
25045;SDS011;13044;49.304;12.840;2024-02-16T04:47:46;6.05;;;4.30;;
25045;SDS011;13044;49.304;12.840;2024-02-16T04:50:14;5.53;;;4.05;;
25045;SDS011;13044;49.304;12.840;2024-02-16T04:52:41;6.75;;;4.85;;
25045;SDS011;13044;49.304;12.840;2024-02-16T04:55:10;7.82;;;4.72;;
25045;SDS011;13044;49.304;12.840;2024-02-16T04:57:36;7.38;;;4.72;;
25045;SDS011;13044;49.304;12.840;2024-02-16T05:00:04;7.82;;;4.97;;
25045;SDS011;13044;49.304;12.840;2024-02-16T05:02:31;6.10;;;4.60;;
25045;SDS011;13044;49.304;12.840;2024-02-16T05:04:58;9.82;;;4.50;;
25045;SDS011;13044;49.304;12.840;2024-02-16T05:07:29;10.88;;;5.78;;
25045;SDS011;13044;49.304;12.840;2024-02-16T05:09:57;16.77;;;9.93;;
25045;SDS011;13044;49.304;12.840;2024-02-16T05:12:25;7.35;;;4.90;;
25045;SDS011;13044;49.304;12.840;2024-02-16T05:14:53;5.40;;;3.88;;
25045;SDS011;13044;49.304;12.840;2024-02-16T05:17:20;6.30;;;4.15;;
25045;SDS011;13044;49.304;12.840;2024-02-16T05:19:49;5.53;;;3.80;;
25045;SDS011;13044;49.304;12.840;2024-02-16T05:22:16;7.03;;;3.95;;
25045;SDS011;13044;49.304;12.840;2024-02-16T05:24:45;5.35;;;3.90;;
25045;SDS011;13044;49.304;12.840;2024-02-16T05:27:13;7.90;;;4.30;;
25045;SDS011;13044;49.304;12.840;2024-02-16T05:29:40;6.85;;;4.20;;
25045;SDS011;13044;49.304;12.840;2024-02-16T05:32:07;6.80;;;4.40;;
25045;SDS011;13044;49.304;12.840;2024-02-16T05:34:34;8.73;;;5.80;;
25045;SDS011;13044;49.304;12.840;2024-02-16T05:37:05;9.55;;;6.13;;
25045;SDS011;13044;49.304;12.840;2024-02-16T05:39:33;10.43;;;6.72;;
25045;SDS011;13044;49.304;12.840;2024-02-16T05:42:09;10.63;;;6.70;;
25045;SDS011;13044;49.304;12.840;2024-02-16T05:44:36;12.65;;;6.93;;
25045;SDS011;13044;49.304;12.840;2024-02-16T05:47:03;11.15;;;7.28;;
25045;SDS011;13044;49.304;12.840;2024-02-16T05:49:30;10.98;;;6.75;;
25045;SDS011;13044;49.304;12.840;2024-02-16T05:51:57;14.40;;;7.60;;
25045;SDS011;13044;49.304;12.840;2024-02-16T05:54:43;16.27;;;8.85;;
25045;SDS011;13044;49.304;12.840;2024-02-16T05:57:14;18.23;;;10.55;;
25045;SDS011;13044;49.304;12.840;2024-02-16T05:59:42;27.05;;;12.23;;
25045;SDS011;13044;49.304;12.840;2024-02-16T06:02:09;20.90;;;11.00;;
25045;SDS011;13044;49.304;12.840;2024-02-16T06:04:38;18.08;;;10.85;;
25045;SDS011;13044;49.304;12.840;2024-02-16T06:07:05;16.17;;;9.82;;
25045;SDS011;13044;49.304;12.840;2024-02-16T06:09:32;19.52;;;9.32;;
25045;SDS011;13044;49.304;12.840;2024-02-16T06:12:01;14.85;;;9.07;;
25045;SDS011;13044;49.304;12.840;2024-02-16T06:14:30;15.48;;;9.55;;
25045;SDS011;13044;49.304;12.840;2024-02-16T06:16:58;15.77;;;9.18;;
25045;SDS011;13044;49.304;12.840;2024-02-16T06:19:25;15.43;;;9.05;;
25045;SDS011;13044;49.304;12.840;2024-02-16T06:21:53;18.55;;;9.88;;
25045;SDS011;13044;49.304;12.840;2024-02-16T06:24:21;20.48;;;11.27;;
25045;SDS011;13044;49.304;12.840;2024-02-16T06:26:49;22.90;;;11.70;;
25045;SDS011;13044;49.304;12.840;2024-02-16T06:29:23;21.38;;;12.25;;
25045;SDS011;13044;49.304;12.840;2024-02-16T06:31:50;27.42;;;14.50;;
25045;SDS011;13044;49.304;12.840;2024-02-16T06:34:18;26.92;;;14.30;;
25045;SDS011;13044;49.304;12.840;2024-02-16T06:36:46;20.23;;;11.50;;
25045;SDS011;13044;49.304;12.840;2024-02-16T06:39:14;21.13;;;10.32;;
25045;SDS011;13044;49.304;12.840;2024-02-16T06:41:46;18.98;;;9.55;;
25045;SDS011;13044;49.304;12.840;2024-02-16T06:44:14;19.65;;;10.18;;
25045;SDS011;13044;49.304;12.840;2024-02-16T06:46:42;14.90;;;9.27;;
25045;SDS011;13044;49.304;12.840;2024-02-16T06:49:10;23.67;;;10.48;;
25045;SDS011;13044;49.304;12.840;2024-02-16T06:51:37;19.48;;;9.50;;
25045;SDS011;13044;49.304;12.840;2024-02-16T06:54:04;21.90;;;9.45;;
25045;SDS011;13044;49.304;12.840;2024-02-16T06:56:31;18.50;;;10.23;;
25045;SDS011;13044;49.304;12.840;2024-02-16T06:58:58;21.83;;;9.90;;
25045;SDS011;13044;49.304;12.840;2024-02-16T07:01:25;22.10;;;10.77;;
25045;SDS011;13044;49.304;12.840;2024-02-16T07:03:54;20.70;;;11.05;;
25045;SDS011;13044;49.304;12.840;2024-02-16T07:06:22;25.20;;;11.70;;
25045;SDS011;13044;49.304;12.840;2024-02-16T07:08:49;25.23;;;12.00;;
25045;SDS011;13044;49.304;12.840;2024-02-16T07:11:16;23.02;;;11.88;;
25045;SDS011;13044;49.304;12.840;2024-02-16T07:13:45;21.65;;;11.52;;
25045;SDS011;13044;49.304;12.840;2024-02-16T07:16:12;22.42;;;10.95;;
25045;SDS011;13044;49.304;12.840;2024-02-16T07:18:39;21.58;;;11.25;;
25045;SDS011;13044;49.304;12.840;2024-02-16T07:21:06;20.08;;;11.20;;
25045;SDS011;13044;49.304;12.840;2024-02-16T07:23:33;28.15;;;13.60;;
25045;SDS011;13044;49.304;12.840;2024-02-16T07:26:00;24.95;;;13.00;;
25045;SDS011;13044;49.304;12.840;2024-02-16T07:28:31;22.23;;;12.30;;
25045;SDS011;13044;49.304;12.840;2024-02-16T07:30:58;30.20;;;13.93;;
25045;SDS011;13044;49.304;12.840;2024-02-16T07:33:25;23.75;;;12.48;;
25045;SDS011;13044;49.304;12.840;2024-02-16T07:35:54;27.35;;;13.80;;
25045;SDS011;13044;49.304;12.840;2024-02-16T07:38:22;28.65;;;14.32;;
25045;SDS011;13044;49.304;12.840;2024-02-16T07:40:49;36.05;;;14.23;;
25045;SDS011;13044;49.304;12.840;2024-02-16T07:43:17;26.98;;;14.48;;
25045;SDS011;13044;49.304;12.840;2024-02-16T07:45:44;22.33;;;12.70;;
25045;SDS011;13044;49.304;12.840;2024-02-16T07:48:11;22.48;;;12.77;;
25045;SDS011;13044;49.304;12.840;2024-02-16T07:50:39;20.90;;;12.15;;
25045;SDS011;13044;49.304;12.840;2024-02-16T07:53:06;28.90;;;13.43;;
25045;SDS011;13044;49.304;12.840;2024-02-16T07:55:33;23.88;;;13.75;;
25045;SDS011;13044;49.304;12.840;2024-02-16T07:58:00;22.13;;;12.27;;
25045;SDS011;13044;49.304;12.840;2024-02-16T08:00:27;23.60;;;13.23;;
25045;SDS011;13044;49.304;12.840;2024-02-16T08:02:55;24.23;;;12.57;;
25045;SDS011;13044;49.304;12.840;2024-02-16T08:05:22;19.52;;;12.48;;
25045;SDS011;13044;49.304;12.840;2024-02-16T08:07:50;21.10;;;11.88;;
25045;SDS011;13044;49.304;12.840;2024-02-16T08:10:20;26.98;;;12.13;;
25045;SDS011;13044;49.304;12.840;2024-02-16T08:12:48;19.00;;;11.35;;
25045;SDS011;13044;49.304;12.840;2024-02-16T08:15:15;16.90;;;11.32;;
25045;SDS011;13044;49.304;12.840;2024-02-16T08:17:49;17.67;;;11.45;;
25045;SDS011;13044;49.304;12.840;2024-02-16T08:20:20;18.88;;;11.85;;
25045;SDS011;13044;49.304;12.840;2024-02-16T08:22:47;20.92;;;12.82;;
25045;SDS011;13044;49.304;12.840;2024-02-16T08:25:14;16.10;;;11.10;;
25045;SDS011;13044;49.304;12.840;2024-02-16T08:27:41;17.63;;;11.30;;
25045;SDS011;13044;49.304;12.840;2024-02-16T08:30:08;20.00;;;12.73;;
25045;SDS011;13044;49.304;12.840;2024-02-16T08:32:36;17.50;;;11.48;;
25045;SDS011;13044;49.304;12.840;2024-02-16T08:35:03;19.20;;;12.48;;
25045;SDS011;13044;49.304;12.840;2024-02-16T08:37:31;18.58;;;12.20;;
25045;SDS011;13044;49.304;12.840;2024-02-16T08:39:58;15.90;;;10.60;;
25045;SDS011;13044;49.304;12.840;2024-02-16T08:42:25;14.48;;;10.48;;
25045;SDS011;13044;49.304;12.840;2024-02-16T08:44:51;16.45;;;12.10;;
25045;SDS011;13044;49.304;12.840;2024-02-16T08:47:18;17.48;;;11.38;;
25045;SDS011;13044;49.304;12.840;2024-02-16T08:49:46;14.38;;;10.18;;
25045;SDS011;13044;49.304;12.840;2024-02-16T08:52:13;14.95;;;10.40;;
25045;SDS011;13044;49.304;12.840;2024-02-16T08:54:40;15.23;;;9.95;;
25045;SDS011;13044;49.304;12.840;2024-02-16T08:57:10;14.52;;;9.07;;
25045;SDS011;13044;49.304;12.840;2024-02-16T08:59:38;16.25;;;10.30;;
25045;SDS011;13044;49.304;12.840;2024-02-16T09:02:05;13.45;;;10.00;;
25045;SDS011;13044;49.304;12.840;2024-02-16T09:04:32;11.23;;;8.30;;
25045;SDS011;13044;49.304;12.840;2024-02-16T09:07:00;19.77;;;11.88;;
25045;SDS011;13044;49.304;12.840;2024-02-16T09:09:27;14.88;;;10.57;;
25045;SDS011;13044;49.304;12.840;2024-02-16T09:11:55;15.35;;;10.27;;
25045;SDS011;13044;49.304;12.840;2024-02-16T09:14:22;14.57;;;9.52;;
25045;SDS011;13044;49.304;12.840;2024-02-16T09:16:49;12.73;;;8.75;;
25045;SDS011;13044;49.304;12.840;2024-02-16T09:19:19;12.27;;;8.60;;
25045;SDS011;13044;49.304;12.840;2024-02-16T09:21:48;13.07;;;9.20;;
25045;SDS011;13044;49.304;12.840;2024-02-16T09:24:19;12.85;;;8.95;;
25045;SDS011;13044;49.304;12.840;2024-02-16T09:26:46;12.27;;;8.13;;
25045;SDS011;13044;49.304;12.840;2024-02-16T09:29:13;12.25;;;9.40;;
25045;SDS011;13044;49.304;12.840;2024-02-16T09:31:40;15.63;;;9.50;;
25045;SDS011;13044;49.304;12.840;2024-02-16T09:34:07;12.82;;;8.90;;
25045;SDS011;13044;49.304;12.840;2024-02-16T09:36:35;11.45;;;8.27;;
25045;SDS011;13044;49.304;12.840;2024-02-16T09:39:03;12.68;;;9.63;;
25045;SDS011;13044;49.304;12.840;2024-02-16T09:41:31;11.60;;;8.77;;
25045;SDS011;13044;49.304;12.840;2024-02-16T09:44:02;13.55;;;9.07;;
25045;SDS011;13044;49.304;12.840;2024-02-16T09:46:30;11.80;;;8.40;;
25045;SDS011;13044;49.304;12.840;2024-02-16T09:49:04;12.50;;;8.43;;
25045;SDS011;13044;49.304;12.840;2024-02-16T09:51:31;12.27;;;8.88;;
25045;SDS011;13044;49.304;12.840;2024-02-16T09:54:03;11.70;;;8.30;;
25045;SDS011;13044;49.304;12.840;2024-02-16T09:56:30;10.85;;;7.82;;
25045;SDS011;13044;49.304;12.840;2024-02-16T09:58:57;11.25;;;7.55;;
25045;SDS011;13044;49.304;12.840;2024-02-16T10:01:24;11.15;;;7.25;;
25045;SDS011;13044;49.304;12.840;2024-02-16T10:03:51;9.70;;;7.40;;
25045;SDS011;13044;49.304;12.840;2024-02-16T10:06:18;8.82;;;7.68;;
25045;SDS011;13044;49.304;12.840;2024-02-16T10:08:49;9.90;;;7.57;;
25045;SDS011;13044;49.304;12.840;2024-02-16T10:11:25;11.00;;;8.05;;
25045;SDS011;13044;49.304;12.840;2024-02-16T10:14:00;12.30;;;8.52;;
25045;SDS011;13044;49.304;12.840;2024-02-16T10:16:30;12.60;;;8.48;;
25045;SDS011;13044;49.304;12.840;2024-02-16T10:19:04;12.48;;;8.40;;
25045;SDS011;13044;49.304;12.840;2024-02-16T10:21:40;11.13;;;8.50;;
25045;SDS011;13044;49.304;12.840;2024-02-16T10:24:11;9.82;;;7.80;;
25045;SDS011;13044;49.304;12.840;2024-02-16T10:26:41;12.30;;;7.32;;
25045;SDS011;13044;49.304;12.840;2024-02-16T10:29:09;11.60;;;8.23;;
25045;SDS011;13044;49.304;12.840;2024-02-16T10:31:40;11.07;;;7.70;;
25045;SDS011;13044;49.304;12.840;2024-02-16T10:34:07;14.95;;;7.90;;
25045;SDS011;13044;49.304;12.840;2024-02-16T10:36:36;11.10;;;7.90;;
25045;SDS011;13044;49.304;12.840;2024-02-16T10:39:06;9.48;;;7.30;;
25045;SDS011;13044;49.304;12.840;2024-02-16T10:41:38;8.90;;;7.10;;
25045;SDS011;13044;49.304;12.840;2024-02-16T10:44:06;9.55;;;7.15;;
25045;SDS011;13044;49.304;12.840;2024-02-16T10:46:34;9.82;;;7.18;;
25045;SDS011;13044;49.304;12.840;2024-02-16T10:49:01;8.68;;;6.68;;
25045;SDS011;13044;49.304;12.840;2024-02-16T10:51:36;10.07;;;7.32;;
25045;SDS011;13044;49.304;12.840;2024-02-16T10:54:10;9.10;;;7.25;;
25045;SDS011;13044;49.304;12.840;2024-02-16T10:56:44;8.80;;;7.10;;
25045;SDS011;13044;49.304;12.840;2024-02-16T10:59:11;8.90;;;6.53;;
25045;SDS011;13044;49.304;12.840;2024-02-16T11:01:39;8.80;;;6.15;;
25045;SDS011;13044;49.304;12.840;2024-02-16T11:04:09;8.63;;;7.00;;
25045;SDS011;13044;49.304;12.840;2024-02-16T11:06:53;8.23;;;6.32;;
25045;SDS011;13044;49.304;12.840;2024-02-16T11:09:30;7.15;;;5.82;;
25045;SDS011;13044;49.304;12.840;2024-02-16T11:12:06;7.97;;;6.18;;
25045;SDS011;13044;49.304;12.840;2024-02-16T11:14:39;7.43;;;5.68;;
25045;SDS011;13044;49.304;12.840;2024-02-16T11:19:42;7.43;;;4.95;;
25045;SDS011;13044;49.304;12.840;2024-02-16T11:22:15;6.57;;;5.35;;
25045;SDS011;13044;49.304;12.840;2024-02-16T11:24:47;7.68;;;5.50;;
25045;SDS011;13044;49.304;12.840;2024-02-16T11:27:16;6.55;;;5.07;;
25045;SDS011;13044;49.304;12.840;2024-02-16T11:29:49;7.22;;;5.22;;
25045;SDS011;13044;49.304;12.840;2024-02-16T11:32:17;6.85;;;5.30;;
25045;SDS011;13044;49.304;12.840;2024-02-16T11:34:46;5.75;;;4.85;;
25045;SDS011;13044;49.304;12.840;2024-02-16T11:37:14;6.47;;;4.68;;
25045;SDS011;13044;49.304;12.840;2024-02-16T11:39:42;4.80;;;4.30;;
25045;SDS011;13044;49.304;12.840;2024-02-16T11:42:12;6.57;;;4.80;;
25045;SDS011;13044;49.304;12.840;2024-02-16T11:44:50;5.90;;;4.40;;
25045;SDS011;13044;49.304;12.840;2024-02-16T11:47:20;8.77;;;5.53;;
25045;SDS011;13044;49.304;12.840;2024-02-16T11:50:01;6.05;;;4.97;;
25045;SDS011;13044;49.304;12.840;2024-02-16T11:52:31;5.85;;;4.50;;
25045;SDS011;13044;49.304;12.840;2024-02-16T11:54:59;7.05;;;4.68;;
25045;SDS011;13044;49.304;12.840;2024-02-16T11:57:28;4.93;;;4.03;;
25045;SDS011;13044;49.304;12.840;2024-02-16T11:59:55;5.97;;;4.60;;
25045;SDS011;13044;49.304;12.840;2024-02-16T12:02:24;5.47;;;4.22;;
25045;SDS011;13044;49.304;12.840;2024-02-16T12:05:00;5.28;;;4.10;;
25045;SDS011;13044;49.304;12.840;2024-02-16T12:07:30;4.15;;;3.75;;
25045;SDS011;13044;49.304;12.840;2024-02-16T12:09:58;5.30;;;4.35;;
25045;SDS011;13044;49.304;12.840;2024-02-16T12:12:28;4.85;;;3.65;;
25045;SDS011;13044;49.304;12.840;2024-02-16T12:14:57;4.68;;;3.78;;
25045;SDS011;13044;49.304;12.840;2024-02-16T12:17:25;6.45;;;4.32;;
25045;SDS011;13044;49.304;12.840;2024-02-16T12:19:52;6.30;;;3.85;;
25045;SDS011;13044;49.304;12.840;2024-02-16T12:22:20;4.50;;;3.72;;
25045;SDS011;13044;49.304;12.840;2024-02-16T12:24:48;5.22;;;3.42;;
25045;SDS011;13044;49.304;12.840;2024-02-16T12:27:16;3.70;;;3.30;;
25045;SDS011;13044;49.304;12.840;2024-02-16T12:29:44;4.45;;;3.60;;
25045;SDS011;13044;49.304;12.840;2024-02-16T12:32:11;5.05;;;3.67;;
25045;SDS011;13044;49.304;12.840;2024-02-16T12:34:44;4.72;;;3.65;;
25045;SDS011;13044;49.304;12.840;2024-02-16T12:37:11;5.07;;;4.32;;
25045;SDS011;13044;49.304;12.840;2024-02-16T12:39:38;5.35;;;4.30;;
25045;SDS011;13044;49.304;12.840;2024-02-16T12:42:06;5.47;;;3.80;;
25045;SDS011;13044;49.304;12.840;2024-02-16T12:44:34;7.50;;;3.97;;
25045;SDS011;13044;49.304;12.840;2024-02-16T12:47:01;3.88;;;3.47;;
25045;SDS011;13044;49.304;12.840;2024-02-16T12:49:28;3.92;;;3.47;;
25045;SDS011;13044;49.304;12.840;2024-02-16T12:51:55;5.32;;;3.42;;
25045;SDS011;13044;49.304;12.840;2024-02-16T12:54:22;7.50;;;3.90;;
25045;SDS011;13044;49.304;12.840;2024-02-16T12:56:50;4.78;;;3.95;;
25045;SDS011;13044;49.304;12.840;2024-02-16T12:59:17;5.13;;;3.85;;
25045;SDS011;13044;49.304;12.840;2024-02-16T13:01:45;6.10;;;4.03;;
25045;SDS011;13044;49.304;12.840;2024-02-16T13:04:13;3.53;;;3.22;;
25045;SDS011;13044;49.304;12.840;2024-02-16T13:06:47;5.05;;;3.97;;
25045;SDS011;13044;49.304;12.840;2024-02-16T13:09:15;4.55;;;3.20;;
25045;SDS011;13044;49.304;12.840;2024-02-16T13:11:42;10.48;;;4.20;;
25045;SDS011;13044;49.304;12.840;2024-02-16T13:14:09;4.88;;;3.28;;
25045;SDS011;13044;49.304;12.840;2024-02-16T13:16:36;3.63;;;3.00;;
25045;SDS011;13044;49.304;12.840;2024-02-16T13:19:03;4.20;;;3.10;;
25045;SDS011;13044;49.304;12.840;2024-02-16T13:21:30;3.83;;;3.33;;
25045;SDS011;13044;49.304;12.840;2024-02-16T13:23:57;4.85;;;3.20;;
25045;SDS011;13044;49.304;12.840;2024-02-16T13:26:25;2.88;;;2.65;;
25045;SDS011;13044;49.304;12.840;2024-02-16T13:28:53;4.00;;;3.20;;
25045;SDS011;13044;49.304;12.840;2024-02-16T13:31:21;4.40;;;3.22;;
25045;SDS011;13044;49.304;12.840;2024-02-16T13:33:49;4.00;;;2.88;;
25045;SDS011;13044;49.304;12.840;2024-02-16T13:36:19;4.80;;;3.20;;
25045;SDS011;13044;49.304;12.840;2024-02-16T13:38:46;4.18;;;3.10;;
25045;SDS011;13044;49.304;12.840;2024-02-16T13:41:13;3.35;;;3.03;;
25045;SDS011;13044;49.304;12.840;2024-02-16T13:43:45;3.88;;;3.30;;
25045;SDS011;13044;49.304;12.840;2024-02-16T13:46:12;3.90;;;3.25;;
25045;SDS011;13044;49.304;12.840;2024-02-16T13:48:40;5.78;;;2.95;;
25045;SDS011;13044;49.304;12.840;2024-02-16T13:51:08;13.32;;;7.85;;
25045;SDS011;13044;49.304;12.840;2024-02-16T13:53:35;21.90;;;10.15;;
25045;SDS011;13044;49.304;12.840;2024-02-16T13:56:02;10.18;;;7.47;;
25045;SDS011;13044;49.304;12.840;2024-02-16T13:58:31;5.97;;;4.25;;
25045;SDS011;13044;49.304;12.840;2024-02-16T14:01:00;5.85;;;3.40;;
25045;SDS011;13044;49.304;12.840;2024-02-16T14:03:30;4.60;;;3.55;;
25045;SDS011;13044;49.304;12.840;2024-02-16T14:05:57;5.25;;;3.88;;
25045;SDS011;13044;49.304;12.840;2024-02-16T14:08:25;3.78;;;3.20;;
25045;SDS011;13044;49.304;12.840;2024-02-16T14:10:53;3.85;;;3.10;;
25045;SDS011;13044;49.304;12.840;2024-02-16T14:13:20;3.42;;;2.90;;
25045;SDS011;13044;49.304;12.840;2024-02-16T14:15:48;5.57;;;3.58;;
25045;SDS011;13044;49.304;12.840;2024-02-16T14:18:15;5.75;;;3.40;;
25045;SDS011;13044;49.304;12.840;2024-02-16T14:20:55;4.25;;;3.30;;
25045;SDS011;13044;49.304;12.840;2024-02-16T14:23:22;5.88;;;3.72;;
25045;SDS011;13044;49.304;12.840;2024-02-16T14:25:49;6.78;;;3.80;;
25045;SDS011;13044;49.304;12.840;2024-02-16T14:28:16;3.75;;;3.17;;
25045;SDS011;13044;49.304;12.840;2024-02-16T14:30:43;4.75;;;2.90;;
25045;SDS011;13044;49.304;12.840;2024-02-16T14:33:10;8.68;;;5.05;;
25045;SDS011;13044;49.304;12.840;2024-02-16T14:35:37;5.03;;;3.83;;